Time;durP1;ratioP1;P1;durP2;ratioP2;P2;SDS_P1;SDS_P2;PMS_P1;PMS_P2;Temp;Humidity;BMP_temperature;BMP_pressure;BME280_temperature;BME280_humidity;BME280_pressure;Samples;Min_cycle;Max_cycle;Signal;HPM_P1;HPM_P2
2021/09/21 00:02:23;;;;;;;10.73;1.75;;;16.30;99.90;;;;;;4906916;29;20079;-87
2021/09/21 00:04:48;;;;;;;5.97;1.48;;;16.30;99.90;;;;;;4916580;29;20033;-87
2021/09/21 00:07:14;;;;;;;9.82;2.17;;;16.20;99.90;;;;;;4904045;29;20088;-87
2021/09/21 00:09:40;;;;;;;8.18;1.65;;;16.20;99.90;;;;;;4897826;29;20249;-87
2021/09/21 00:12:05;;;;;;;6.72;1.33;;;16.20;99.90;;;;;;4907437;29;20028;-87
2021/09/21 00:14:31;;;;;;;7.28;1.60;;;16.20;99.90;;;;;;4909995;29;20036;-87
2021/09/21 00:16:58;;;;;;;8.18;1.40;;;16.20;99.90;;;;;;4896248;29;20100;-87
2021/09/21 00:19:24;;;;;;;5.72;1.20;;;16.20;99.90;;;;;;4902922;29;20029;-87
2021/09/21 00:21:50;;;;;;;7.78;1.27;;;16.20;99.90;;;;;;4899225;29;20056;-87
2021/09/21 00:24:15;;;;;;;4.00;1.02;;;16.20;99.90;;;;;;4901286;29;20036;-87
2021/09/21 00:26:41;;;;;;;7.70;1.60;;;16.20;99.90;;;;;;4897391;29;20409;-87
2021/09/21 00:29:08;;;;;;;7.00;1.40;;;16.20;99.90;;;;;;4896304;29;20033;-88
2021/09/21 00:31:38;;;;;;;8.85;1.30;;;16.10;99.90;;;;;;4905462;29;20030;-88
2021/09/21 00:34:07;;;;;;;9.80;1.52;;;16.10;99.90;;;;;;4917951;29;20123;-87
2021/09/21 00:36:37;;;;;;;7.45;1.60;;;16.10;99.90;;;;;;4901192;29;20104;-87
2021/09/21 00:39:05;;;;;;;6.05;1.65;;;16.00;99.90;;;;;;4901613;29;20056;-88
2021/09/21 00:41:32;;;;;;;5.38;1.17;;;16.00;99.90;;;;;;4913700;29;20028;-88
2021/09/21 00:43:57;;;;;;;4.35;1.20;;;16.00;99.90;;;;;;4902265;29;20057;-88
2021/09/21 00:46:23;;;;;;;6.22;1.60;;;16.00;99.90;;;;;;4903588;29;20040;-88
2021/09/21 00:48:49;;;;;;;10.95;1.83;;;15.90;99.90;;;;;;4917246;29;20486;-88
2021/09/21 00:51:14;;;;;;;10.48;1.63;;;15.90;99.90;;;;;;4909219;29;20168;-88
2021/09/21 00:53:40;;;;;;;7.75;1.55;;;15.90;99.90;;;;;;4903834;29;20036;-90
2021/09/21 00:56:06;;;;;;;9.77;1.80;;;15.90;99.90;;;;;;4903919;29;20039;-88
2021/09/21 00:58:31;;;;;;;10.60;1.40;;;15.70;99.90;;;;;;4899850;29;20028;-87
2021/09/21 01:00:57;;;;;;;6.80;1.48;;;15.70;99.90;;;;;;4911872;29;20035;-88
2021/09/21 01:03:23;;;;;;;13.00;2.08;;;15.70;99.90;;;;;;4904442;29;20084;-88
2021/09/21 01:05:48;;;;;;;6.47;1.73;;;15.70;99.90;;;;;;4910577;29;20027;-88
2021/09/21 01:08:14;;;;;;;6.00;1.30;;;15.80;99.90;;;;;;4908201;29;20490;-87
2021/09/21 01:10:40;;;;;;;6.20;1.60;;;15.70;99.90;;;;;;4906105;29;20536;-88
2021/09/21 01:13:06;;;;;;;9.02;1.88;;;15.70;99.90;;;;;;4906133;29;20029;-88
2021/09/21 01:15:31;;;;;;;9.35;1.90;;;15.70;99.90;;;;;;4904856;29;20477;-87
2021/09/21 01:17:58;;;;;;;6.53;1.83;;;15.80;99.90;;;;;;4900615;29;20084;-87
2021/09/21 01:20:24;;;;;;;9.27;1.88;;;15.80;99.90;;;;;;4923752;29;20032;-87
2021/09/21 01:22:50;;;;;;;11.60;1.90;;;15.70;99.90;;;;;;4907331;29;20561;-87
2021/09/21 01:25:16;;;;;;;6.40;1.55;;;15.70;99.90;;;;;;4904581;29;20029;-88
2021/09/21 01:27:42;;;;;;;9.15;2.13;;;15.70;99.90;;;;;;4913710;29;20241;-88
2021/09/21 01:30:10;;;;;;;11.85;1.98;;;15.70;99.90;;;;;;4908693;29;20021;-88
2021/09/21 01:32:36;;;;;;;8.15;1.70;;;15.60;99.90;;;;;;4912746;29;20020;-88
2021/09/21 01:35:02;;;;;;;11.85;1.52;;;15.60;99.90;;;;;;4928041;29;20425;-87
2021/09/21 01:37:28;;;;;;;9.13;2.05;;;15.50;99.90;;;;;;4904960;29;20048;-87
2021/09/21 01:39:54;;;;;;;7.15;1.80;;;15.40;99.90;;;;;;4906148;29;20029;-88
2021/09/21 01:42:20;;;;;;;13.48;2.30;;;15.50;99.90;;;;;;4900030;29;20037;-87
2021/09/21 01:44:46;;;;;;;8.35;2.13;;;15.50;99.90;;;;;;4899128;29;20478;-88
2021/09/21 01:47:11;;;;;;;7.25;1.60;;;15.50;99.90;;;;;;4898873;29;20099;-87
2021/09/21 01:49:59;;;;;;;10.40;1.98;;;15.40;99.90;;;;;;4928574;29;20123;-88
2021/09/21 01:52:35;;;;;;;12.15;2.38;;;15.50;99.90;;;;;;4897687;29;20052;-88
2021/09/21 01:55:07;;;;;;;11.27;2.13;;;15.40;99.90;;;;;;4904065;29;20390;-87
2021/09/21 02:00:17;;;;;;;10.13;2.00;;;15.40;99.90;;;;;;4898260;29;20059;-88
2021/09/21 02:02:43;;;;;;;7.95;2.10;;;15.30;99.90;;;;;;4900607;29;20494;-88
2021/09/21 02:05:09;;;;;;;10.07;1.90;;;15.40;99.90;;;;;;4897751;29;20482;-88
2021/09/21 02:07:35;;;;;;;10.57;2.30;;;15.30;99.90;;;;;;4897399;29;20146;-87
2021/09/21 02:10:01;;;;;;;8.90;2.17;;;15.30;99.90;;;;;;4897563;29;20028;-88
2021/09/21 02:12:28;;;;;;;6.78;2.33;;;15.30;99.90;;;;;;4931850;29;20032;-88
2021/09/21 02:14:57;;;;;;;5.72;1.77;;;15.30;99.90;;;;;;4911428;29;20119;-88
2021/09/21 02:17:23;;;;;;;11.43;2.10;;;15.30;99.90;;;;;;4901744;29;20031;-87
2021/09/21 02:19:49;;;;;;;9.93;2.33;;;15.30;99.90;;;;;;4901858;29;20020;-88
2021/09/21 02:22:14;;;;;;;8.90;3.05;;;15.30;99.90;;;;;;4897063;29;20453;-87
2021/09/21 02:24:40;;;;;;;12.05;2.53;;;15.30;99.90;;;;;;4898272;29;20091;-88
2021/09/21 02:27:06;;;;;;;8.93;2.20;;;15.30;99.90;;;;;;4896010;29;20557;-87
2021/09/21 02:29:31;;;;;;;13.68;2.28;;;15.30;99.90;;;;;;4903304;29;20036;-88
2021/09/21 02:31:57;;;;;;;8.48;2.20;;;15.30;99.90;;;;;;4927929;29;20024;-88
2021/09/21 02:34:23;;;;;;;13.13;2.30;;;15.30;99.90;;;;;;4897171;29;20099;-87
2021/09/21 02:36:48;;;;;;;9.30;2.67;;;15.40;99.90;;;;;;4898628;29;20052;-88
2021/09/21 02:39:14;;;;;;;6.82;2.05;;;15.40;99.90;;;;;;4897112;29;20111;-87
2021/09/21 02:41:40;;;;;;;8.98;2.47;;;15.40;99.90;;;;;;4899673;29;20075;-87
2021/09/21 02:44:06;;;;;;;8.43;2.15;;;15.40;99.90;;;;;;4896960;29;20045;-87
2021/09/21 02:46:32;;;;;;;6.10;2.35;;;15.40;99.90;;;;;;4898298;29;20039;-87
2021/09/21 02:48:58;;;;;;;8.48;2.15;;;15.40;99.90;;;;;;4895345;29;20021;-87
2021/09/21 02:51:23;;;;;;;9.45;2.65;;;15.40;99.90;;;;;;4908498;29;20407;-87
2021/09/21 02:53:49;;;;;;;8.50;2.40;;;15.30;99.90;;;;;;4904080;29;20047;-87
2021/09/21 02:56:15;;;;;;;9.82;2.17;;;15.30;99.90;;;;;;4896558;29;20036;-87
2021/09/21 02:58:44;;;;;;;9.50;3.08;;;15.30;99.90;;;;;;4939368;29;20024;-87
2021/09/21 03:01:11;;;;;;;13.95;3.40;;;15.30;99.90;;;;;;4917830;29;20406;-87
2021/09/21 03:03:45;;;;;;;7.47;2.28;;;15.30;99.90;;;;;;4903748;29;20039;-87
2021/09/21 03:06:20;;;;;;;8.93;2.50;;;15.30;99.90;;;;;;4901606;29;20057;-87
2021/09/21 03:08:50;;;;;;;8.00;2.50;;;15.30;99.90;;;;;;4904447;29;20442;-87
2021/09/21 03:19:27;;;;;;;18.60;3.17;;;15.30;99.90;;;;;;4907834;29;20512;-87
2021/09/21 03:21:54;;;;;;;11.25;3.30;;;15.30;99.90;;;;;;4901757;29;20108;-87
2021/09/21 03:24:19;;;;;;;9.48;2.92;;;15.30;99.90;;;;;;4907753;29;20036;-87
2021/09/21 03:26:47;;;;;;;7.65;2.88;;;15.30;99.90;;;;;;4902538;29;20028;-87
2021/09/21 03:29:13;;;;;;;9.00;2.50;;;15.30;99.90;;;;;;4917454;29;20106;-87
2021/09/21 03:31:39;;;;;;;9.52;2.95;;;15.30;99.90;;;;;;4900423;29;20040;-87
2021/09/21 03:34:04;;;;;;;8.48;2.70;;;15.30;99.90;;;;;;4909271;29;20490;-87
2021/09/21 03:36:30;;;;;;;10.82;3.00;;;15.30;99.90;;;;;;4900400;29;20031;-87
2021/09/21 03:38:56;;;;;;;9.20;2.80;;;15.30;99.90;;;;;;4909856;29;20161;-87
2021/09/21 03:41:22;;;;;;;7.03;2.55;;;15.20;99.90;;;;;;4901490;29;20142;-87
2021/09/21 03:43:48;;;;;;;9.75;2.92;;;15.30;99.90;;;;;;4907029;29;20032;-87
2021/09/21 03:46:14;;;;;;;8.57;2.95;;;15.30;99.90;;;;;;4918195;29;20027;-87
2021/09/21 03:48:39;;;;;;;7.82;3.10;;;15.20;99.90;;;;;;4903594;29;20486;-87
2021/09/21 03:51:05;;;;;;;11.35;3.35;;;15.20;99.90;;;;;;4917668;29;20408;-88
2021/09/21 03:53:31;;;;;;;9.73;3.35;;;15.20;99.90;;;;;;4902778;29;20036;-87
2021/09/21 03:55:57;;;;;;;11.25;3.63;;;15.20;99.90;;;;;;4904136;29;20032;-87
2021/09/21 03:58:22;;;;;;;6.82;3.30;;;15.20;99.90;;;;;;4905277;29;20024;-87
2021/09/21 04:00:48;;;;;;;10.50;4.07;;;15.20;99.90;;;;;;4904147;29;20025;-87
2021/09/21 04:03:14;;;;;;;8.82;3.72;;;15.20;99.90;;;;;;4899093;29;20032;-87
2021/09/21 04:05:41;;;;;;;10.82;4.55;;;15.20;99.90;;;;;;4910720;29;20032;-87
2021/09/21 04:08:07;;;;;;;10.65;3.97;;;15.20;99.90;;;;;;4897555;29;20028;-87
2021/09/21 04:10:32;;;;;;;10.75;4.15;;;15.20;99.90;;;;;;4901885;29;20024;-88
2021/09/21 04:12:58;;;;;;;11.32;4.28;;;15.20;99.90;;;;;;4898847;29;20071;-87
2021/09/21 04:15:24;;;;;;;12.05;4.18;;;15.20;99.90;;;;;;4899692;29;20029;-87
2021/09/21 04:17:50;;;;;;;18.48;5.00;;;15.20;99.90;;;;;;4901929;29;20094;-87
2021/09/21 04:20:15;;;;;;;13.18;5.93;;;15.30;99.90;;;;;;4913982;29;20032;-87
2021/09/21 04:22:43;;;;;;;14.30;4.90;;;15.30;99.90;;;;;;4905979;29;20036;-87
2021/09/21 04:25:10;;;;;;;11.70;4.57;;;15.30;99.90;;;;;;4903434;29;20028;-87
2021/09/21 04:27:36;;;;;;;16.55;6.15;;;15.30;99.90;;;;;;4906119;29;20626;-87
2021/09/21 04:30:03;;;;;;;12.05;5.03;;;15.30;99.90;;;;;;4902349;29;20347;-87
2021/09/21 04:32:29;;;;;;;14.05;5.22;;;15.40;99.90;;;;;;4902186;29;20020;-87
2021/09/21 04:34:55;;;;;;;15.38;5.55;;;15.50;99.90;;;;;;4920960;29;20512;-87
2021/09/21 04:37:21;;;;;;;16.23;5.32;;;15.50;99.90;;;;;;4901633;29;20035;-87
2021/09/21 04:39:47;;;;;;;10.27;5.47;;;15.50;99.90;;;;;;4911614;29;20024;-87
2021/09/21 04:42:13;;;;;;;13.93;5.18;;;15.50;99.90;;;;;;4911253;29;20094;-87
2021/09/21 04:44:39;;;;;;;12.63;5.57;;;15.50;99.90;;;;;;4895815;29;20477;-87
2021/09/21 04:47:05;;;;;;;10.25;5.15;;;15.50;99.90;;;;;;4897559;29;20501;-87
2021/09/21 04:49:31;;;;;;;12.32;5.85;;;15.50;99.90;;;;;;4925017;29;20017;-87
2021/09/21 04:51:57;;;;;;;15.15;5.20;;;15.50;99.90;;;;;;4909574;29;20036;-87
2021/09/21 04:54:23;;;;;;;9.45;5.43;;;15.50;99.90;;;;;;4924707;29;20394;-87
2021/09/21 04:56:49;;;;;;;9.93;5.72;;;15.50;99.90;;;;;;4899343;29;20406;-87
2021/09/21 04:59:14;;;;;;;13.52;5.97;;;15.60;99.90;;;;;;4899531;29;20024;-87
2021/09/21 05:01:40;;;;;;;12.55;5.38;;;15.50;99.90;;;;;;4898944;29;20072;-87
2021/09/21 05:04:05;;;;;;;12.15;5.00;;;15.50;99.90;;;;;;4900934;29;20040;-87
2021/09/21 05:06:31;;;;;;;8.18;5.07;;;15.60;99.90;;;;;;4897227;29;20025;-87
2021/09/21 05:08:57;;;;;;;13.43;5.22;;;15.70;99.90;;;;;;4899410;29;20028;-88
2021/09/21 05:11:23;;;;;;;13.00;5.07;;;15.70;99.90;;;;;;4897488;29;20024;-88
2021/09/21 05:13:48;;;;;;;11.98;5.30;;;15.70;99.90;;;;;;4908419;29;20024;-88
2021/09/21 05:16:14;;;;;;;15.00;5.97;;;15.70;99.90;;;;;;4895072;29;20036;-87
2021/09/21 05:18:40;;;;;;;10.77;5.40;;;15.70;99.90;;;;;;4926622;29;20025;-87
2021/09/21 05:21:05;;;;;;;12.07;5.63;;;15.70;99.90;;;;;;4894801;29;20119;-87
2021/09/21 05:23:31;;;;;;;12.73;5.60;;;15.70;99.90;;;;;;4896110;29;20509;-88
2021/09/21 05:25:57;;;;;;;11.93;5.35;;;15.60;99.90;;;;;;4895017;29;20025;-88
2021/09/21 05:28:22;;;;;;;15.65;6.20;;;15.60;99.90;;;;;;4905752;29;20024;-88
2021/09/21 05:30:48;;;;;;;13.45;5.75;;;15.60;99.90;;;;;;4906885;29;20083;-88
2021/09/21 05:33:14;;;;;;;13.88;6.22;;;15.70;99.90;;;;;;4899102;29;20025;-88
2021/09/21 05:35:40;;;;;;;10.02;5.78;;;15.60;99.90;;;;;;4906554;29;20028;-88
2021/09/21 05:38:05;;;;;;;13.55;6.18;;;15.60;99.90;;;;;;4905019;29;20036;-87
2021/09/21 05:40:31;;;;;;;20.35;6.70;;;15.60;99.90;;;;;;4905103;29;20024;-84
2021/09/21 05:42:57;;;;;;;14.48;6.25;;;15.60;99.90;;;;;;4939518;28;20496;-85
2021/09/21 05:45:22;;;;;;;17.00;7.32;;;15.60;99.90;;;;;;4900903;29;20064;-84
2021/09/21 05:47:48;;;;;;;10.63;7.38;;;15.50;99.90;;;;;;4906548;29;20212;-84
2021/09/21 05:50:15;;;;;;;11.82;7.07;;;15.50;99.90;;;;;;4912490;29;20032;-84
2021/09/21 05:52:41;;;;;;;18.65;7.82;;;15.40;99.90;;;;;;4912698;29;20031;-84
2021/09/21 05:55:08;;;;;;;14.88;8.35;;;15.40;99.90;;;;;;4911874;29;20025;-85
2021/09/21 05:57:34;;;;;;;14.43;8.65;;;15.40;99.90;;;;;;4912217;29;20031;-84
2021/09/21 06:00:00;;;;;;;19.55;9.15;;;15.40;99.90;;;;;;4910289;29;20020;-84
2021/09/21 06:02:26;;;;;;;19.13;9.68;;;15.30;99.90;;;;;;4910177;29;20494;-84
2021/09/21 06:04:52;;;;;;;13.80;8.68;;;15.40;99.90;;;;;;4910336;29;20205;-84
2021/09/21 06:07:18;;;;;;;18.63;10.27;;;15.40;99.90;;;;;;4907742;29;20036;-84
2021/09/21 06:09:44;;;;;;;17.92;10.25;;;15.40;99.90;;;;;;4917556;29;20018;-84
2021/09/21 06:12:10;;;;;;;17.58;10.70;;;15.40;99.90;;;;;;4910582;29;20136;-84
2021/09/21 06:14:36;;;;;;;14.88;10.07;;;15.50;99.90;;;;;;4913327;29;20025;-84
2021/09/21 06:17:03;;;;;;;16.38;10.27;;;15.50;99.90;;;;;;4918715;29;20028;-84
2021/09/21 06:19:29;;;;;;;17.45;10.27;;;15.50;99.90;;;;;;4922029;29;20033;-84
2021/09/21 06:21:55;;;;;;;20.45;11.45;;;15.50;99.90;;;;;;4922363;29;20223;-84
2021/09/21 06:24:20;;;;;;;18.52;11.63;;;15.50;99.90;;;;;;4922738;29;20087;-84
2021/09/21 06:26:47;;;;;;;21.90;11.70;;;15.50;99.90;;;;;;4922902;29;20013;-84
2021/09/21 06:29:13;;;;;;;21.35;11.85;;;15.50;99.90;;;;;;4923119;29;20036;-84
2021/09/21 06:31:38;;;;;;;18.63;11.85;;;15.50;99.90;;;;;;4918392;29;20044;-84
2021/09/21 06:34:04;;;;;;;18.73;11.90;;;15.50;99.90;;;;;;4922327;29;20211;-84
2021/09/21 06:36:30;;;;;;;19.77;12.70;;;15.70;99.90;;;;;;4924334;29;20008;-84
2021/09/21 06:38:56;;;;;;;20.17;12.00;;;15.80;99.90;;;;;;4917892;29;20024;-83
2021/09/21 06:41:21;;;;;;;19.85;13.38;;;15.80;99.90;;;;;;4905148;29;20501;-84
2021/09/21 06:43:48;;;;;;;19.48;13.70;;;15.80;99.90;;;;;;4908684;29;20111;-84
2021/09/21 06:46:14;;;;;;;23.13;15.73;;;16.00;99.90;;;;;;4903835;29;20039;-84
2021/09/21 06:48:40;;;;;;;26.65;15.02;;;16.00;99.90;;;;;;4898626;29;20474;-84
2021/09/21 06:51:07;;;;;;;22.33;15.93;;;16.10;99.90;;;;;;4905340;29;20044;-83
2021/09/21 06:53:33;;;;;;;28.42;16.38;;;16.10;99.90;;;;;;4899211;29;20544;-84
2021/09/21 06:55:59;;;;;;;24.73;17.65;;;16.10;99.90;;;;;;4899867;29;20478;-84
2021/09/21 06:58:24;;;;;;;34.38;19.20;;;16.20;99.90;;;;;;4908678;29;20037;-84
2021/09/21 07:00:50;;;;;;;31.38;20.25;;;16.20;99.90;;;;;;4904423;29;20021;-84
2021/09/21 07:03:16;;;;;;;31.65;21.60;;;16.40;99.90;;;;;;4907839;29;20496;-89
2021/09/21 07:05:42;;;;;;;31.00;20.73;;;16.40;99.90;;;;;;4901587;29;20035;-90
2021/09/21 07:08:08;;;;;;;28.02;20.00;;;16.50;99.90;;;;;;4917246;29;20029;-90
2021/09/21 07:10:34;;;;;;;35.22;22.75;;;16.60;99.90;;;;;;4939377;29;20024;-91
2021/09/21 07:12:59;;;;;;;36.85;24.13;;;16.70;99.90;;;;;;4908195;29;20064;-89
2021/09/21 07:15:25;;;;;;;32.95;24.95;;;16.70;99.90;;;;;;4906033;29;20036;-91
2021/09/21 07:17:52;;;;;;;35.70;25.60;;;16.70;99.90;;;;;;4924900;29;20035;-89
2021/09/21 07:20:23;;;;;;;34.85;24.30;;;16.70;99.90;;;;;;4933423;29;20029;-89
2021/09/21 07:22:51;;;;;;;32.97;23.50;;;16.80;99.90;;;;;;4899383;29;20037;-89
2021/09/21 07:25:18;;;;;;;34.63;24.73;;;16.80;99.90;;;;;;4902954;29;20574;-90
2021/09/21 07:27:45;;;;;;;34.80;25.15;;;16.90;99.90;;;;;;4903684;29;20044;-89
2021/09/21 07:30:11;;;;;;;35.53;26.17;;;17.00;99.90;;;;;;4945209;28;20020;-88
2021/09/21 07:32:37;;;;;;;32.45;24.27;;;17.00;99.90;;;;;;4923119;29;20039;-87
2021/09/21 07:35:04;;;;;;;33.42;24.85;;;17.00;99.90;;;;;;4905770;29;20021;-87
2021/09/21 07:37:30;;;;;;;39.10;26.95;;;16.90;99.90;;;;;;4907808;29;20037;-86
2021/09/21 07:39:56;;;;;;;39.33;25.85;;;16.90;99.90;;;;;;4902328;29;20033;-87
2021/09/21 07:42:22;;;;;;;45.22;26.58;;;16.90;99.90;;;;;;4909248;29;20052;-87
2021/09/21 07:44:48;;;;;;;38.40;26.10;;;16.90;99.90;;;;;;4910551;29;20037;-86
2021/09/21 07:47:14;;;;;;;42.58;27.40;;;16.90;99.90;;;;;;4908340;29;20025;-86
2021/09/21 07:49:40;;;;;;;34.28;26.00;;;17.00;99.90;;;;;;4911997;29;20047;-86
2021/09/21 07:52:06;;;;;;;38.72;26.20;;;17.00;99.90;;;;;;4910690;29;20140;-87
2021/09/21 07:54:32;;;;;;;34.97;25.35;;;17.10;99.90;;;;;;4911436;29;20100;-91
2021/09/21 07:56:58;;;;;;;36.22;26.75;;;17.20;99.90;;;;;;4905427;29;20024;-92
2021/09/21 07:59:23;;;;;;;36.03;25.40;;;17.20;99.90;;;;;;4934590;29;20032;-92
2021/09/21 08:01:49;;;;;;;37.25;25.63;;;17.30;99.90;;;;;;4919198;29;20553;-92
2021/09/21 08:04:15;;;;;;;34.95;27.02;;;17.40;99.90;;;;;;4902567;29;20047;-94
2021/09/21 08:06:40;;;;;;;39.63;28.60;;;17.50;99.90;;;;;;4907353;29;20020;-92
2021/09/21 08:09:06;;;;;;;41.10;29.20;;;17.50;99.90;;;;;;4911396;29;20436;-94
2021/09/21 08:11:32;;;;;;;41.33;31.48;;;17.50;99.90;;;;;;4903176;29;20775;-92
2021/09/21 08:14:03;;;;;;;41.20;31.02;;;17.50;99.90;;;;;;4914011;29;20020;-92
2021/09/21 08:16:30;;;;;;;46.67;32.15;;;17.50;99.90;;;;;;4931175;28;20041;-93
2021/09/21 08:18:56;;;;;;;44.15;32.35;;;17.40;99.90;;;;;;4913538;29;20024;-94
2021/09/21 08:21:22;;;;;;;46.38;32.33;;;17.40;99.90;;;;;;4938793;29;20056;-93
2021/09/21 08:23:48;;;;;;;47.55;33.63;;;17.40;99.90;;;;;;4917822;29;20524;-92
2021/09/21 08:26:13;;;;;;;51.72;35.33;;;17.50;99.90;;;;;;4918894;29;20063;-92
2021/09/21 08:28:39;;;;;;;48.55;33.70;;;17.60;99.90;;;;;;4914524;29;20091;-94
2021/09/21 08:31:05;;;;;;;47.17;35.13;;;17.50;99.90;;;;;;4919599;29;20032;-93
2021/09/21 08:33:31;;;;;;;53.00;37.53;;;17.60;99.90;;;;;;4943009;28;20123;-92
2021/09/21 08:36:00;;;;;;;51.28;36.33;;;17.50;99.90;;;;;;4947874;29;20206;-93
2021/09/21 08:38:26;;;;;;;52.25;36.78;;;17.50;99.90;;;;;;4942786;29;20117;-94
2021/09/21 08:40:52;;;;;;;54.38;37.20;;;17.50;99.90;;;;;;4921446;29;20051;-92
2021/09/21 08:43:17;;;;;;;50.17;35.28;;;17.60;99.90;;;;;;4929400;29;20040;-93
2021/09/21 08:45:43;;;;;;;47.10;34.60;;;17.80;99.90;;;;;;4958403;28;20021;-92
2021/09/21 08:48:09;;;;;;;53.05;34.78;;;17.90;99.90;;;;;;4954754;28;20028;-92
2021/09/21 08:50:35;;;;;;;46.33;32.70;;;18.00;99.90;;;;;;4928682;29;20013;-91
2021/09/21 08:53:01;;;;;;;45.75;33.28;;;18.20;99.90;;;;;;4958137;28;20075;-92
2021/09/21 08:55:27;;;;;;;48.65;34.92;;;18.30;99.90;;;;;;4929238;29;20028;-92
2021/09/21 08:57:54;;;;;;;46.22;33.45;;;18.40;99.90;;;;;;4939990;29;20028;-93
2021/09/21 09:00:27;;;;;;;45.90;33.67;;;18.50;99.90;;;;;;4929339;29;20036;-92
2021/09/21 09:03:05;;;;;;;46.92;33.03;;;18.60;99.90;;;;;;4910916;29;20040;-92
2021/09/21 09:06:20;;;;;;;49.00;33.67;;;18.80;99.90;;;;;;4907120;29;20198;-92
2021/09/21 09:08:46;;;;;;;42.97;31.92;;;19.00;99.90;;;;;;4922801;29;20127;-92
2021/09/21 09:11:17;;;;;;;51.42;33.67;;;19.10;99.90;;;;;;4928307;29;20039;-94
2021/09/21 09:13:50;;;;;;;48.33;34.30;;;19.20;99.90;;;;;;4917938;29;20036;-92
2021/09/21 09:16:37;;;;;;;47.42;33.80;;;19.10;99.90;;;;;;4950365;28;20165;-92
2021/09/21 09:19:13;;;;;;;46.83;34.58;;;19.30;99.90;;;;;;4921026;29;20032;-91
2021/09/21 09:21:42;;;;;;;38.72;29.58;;;19.40;99.90;;;;;;4909479;29;20517;-91
2021/09/21 09:24:12;;;;;;;43.13;32.17;;;19.60;99.90;;;;;;4946478;28;20040;-93
2021/09/21 09:26:42;;;;;;;46.63;32.55;;;19.60;99.90;;;;;;4922502;29;20033;-91
2021/09/21 09:29:10;;;;;;;43.50;31.73;;;19.50;99.90;;;;;;4905291;29;20120;-88
2021/09/21 09:31:37;;;;;;;42.72;31.35;;;19.50;99.90;;;;;;4914110;29;20028;-87
2021/09/21 09:34:18;;;;;;;45.83;34.35;;;19.40;99.90;;;;;;4907386;29;20450;-87
2021/09/21 09:36:58;;;;;;;43.78;32.72;;;19.50;99.90;;;;;;4915462;29;20024;-87
2021/09/21 09:39:26;;;;;;;44.63;32.97;;;19.50;99.90;;;;;;4911242;29;20028;-87
2021/09/21 09:41:53;;;;;;;42.80;33.33;;;19.40;99.90;;;;;;4934666;29;20119;-87
2021/09/21 09:44:22;;;;;;;41.20;31.27;;;19.40;99.90;;;;;;4910126;29;20039;-89
2021/09/21 09:46:55;;;;;;;45.67;32.42;;;19.40;99.90;;;;;;4908291;29;20034;-86
2021/09/21 09:49:30;;;;;;;39.50;29.30;;;19.60;99.90;;;;;;4903053;29;20267;-87
2021/09/21 09:52:04;;;;;;;40.97;28.52;;;19.50;99.90;;;;;;4931014;29;20160;-86
2021/09/21 09:54:31;;;;;;;38.05;27.98;;;19.60;99.90;;;;;;4902827;29;20103;-86
2021/09/21 09:56:58;;;;;;;37.42;26.42;;;19.70;99.90;;;;;;4900875;29;20056;-86
2021/09/21 09:59:28;;;;;;;38.80;27.75;;;19.70;99.90;;;;;;4898331;29;20033;-86
2021/09/21 10:01:54;;;;;;;34.80;26.85;;;19.70;99.90;;;;;;4903554;29;20382;-86
2021/09/21 10:04:19;;;;;;;38.88;27.98;;;19.80;99.90;;;;;;4914101;29;20036;-86
2021/09/21 10:06:46;;;;;;;35.55;27.17;;;19.90;99.90;;;;;;4934989;28;20033;-86
2021/09/21 10:09:12;;;;;;;33.95;25.58;;;19.90;99.90;;;;;;4907717;29;20494;-86
2021/09/21 10:11:40;;;;;;;38.55;26.38;;;20.10;99.90;;;;;;4914981;29;20052;-85
2021/09/21 10:14:06;;;;;;;37.80;27.35;;;20.20;99.90;;;;;;4903490;29;20049;-87
2021/09/21 10:16:32;;;;;;;35.22;25.05;;;20.30;99.90;;;;;;4908926;29;20056;-86
2021/09/21 10:19:00;;;;;;;34.47;24.98;;;20.30;99.90;;;;;;4905659;29;20039;-86
2021/09/21 10:21:38;;;;;;;30.45;21.75;;;20.50;99.90;;;;;;4906865;29;20079;-86
2021/09/21 10:24:06;;;;;;;27.75;22.58;;;20.60;99.90;;;;;;4906429;29;20028;-85
2021/09/21 10:26:41;;;;;;;32.20;23.48;;;20.70;99.90;;;;;;4901920;29;20032;-89
2021/09/21 10:29:08;;;;;;;32.05;23.13;;;20.80;99.90;;;;;;4904816;29;20206;-91
2021/09/21 10:31:35;;;;;;;29.58;22.83;;;20.90;99.90;;;;;;4934308;29;20032;-90
2021/09/21 10:34:14;;;;;;;29.33;23.10;;;20.90;99.90;;;;;;4898475;29;20029;-89
2021/09/21 10:36:49;;;;;;;30.30;23.77;;;21.00;99.90;;;;;;4905457;29;20304;-90
2021/09/21 10:39:15;;;;;;;;;;;21.00;99.90;;;;;;4911423;29;20031;-90
2021/09/21 10:42:02;;;;;;;28.70;21.23;;;21.00;99.90;;;;;;4908833;29;20462;-89
2021/09/21 10:44:29;;;;;;;24.95;18.73;;;21.10;99.90;;;;;;4911951;29;20041;-89
2021/09/21 10:46:56;;;;;;;32.63;21.13;;;21.20;99.90;;;;;;4906365;29;20055;-93
2021/09/21 10:49:33;;;;;;;27.73;20.70;;;21.20;99.90;;;;;;4901096;29;20035;-90
2021/09/21 10:52:03;;;;;;;31.73;22.98;;;21.10;99.90;;;;;;4928156;29;20059;-91
2021/09/21 10:54:31;;;;;;;31.52;23.08;;;21.10;99.90;;;;;;4915694;29;20027;-90
2021/09/21 10:57:10;;;;;;;30.52;22.85;;;21.10;99.90;;;;;;4914817;29;20108;-91
2021/09/21 10:59:38;;;;;;;30.83;22.90;;;21.20;99.90;;;;;;4916322;29;20020;-90
2021/09/21 11:02:06;;;;;;;27.10;20.40;;;21.20;99.90;;;;;;4905496;29;20136;-90
2021/09/21 11:04:40;;;;;;;32.08;21.13;;;21.40;99.90;;;;;;4912350;29;20040;-89
2021/09/21 11:07:05;;;;;;;24.73;20.08;;;21.60;99.90;;;;;;4903900;29;20564;-91
2021/09/21 11:09:31;;;;;;;27.25;17.95;;;21.90;99.90;;;;;;4914281;29;20035;-88
2021/09/21 11:12:08;;;;;;;23.88;17.92;;;22.00;99.90;;;;;;4917286;29;20028;-90
2021/09/21 11:14:43;;;;;;;21.52;16.88;;;22.30;99.90;;;;;;4916804;29;20318;-89
2021/09/21 11:17:11;;;;;;;22.55;18.13;;;22.40;99.90;;;;;;4920126;29;20024;-89
2021/09/21 11:19:38;;;;;;;20.83;16.70;;;22.50;99.90;;;;;;4901714;29;20075;-88
2021/09/21 11:22:06;;;;;;;22.80;17.50;;;22.60;99.90;;;;;;4916320;29;20044;-89
2021/09/21 11:24:37;;;;;;;26.27;18.13;;;22.40;99.90;;;;;;4916644;29;20032;-89
2021/09/21 11:27:09;;;;;;;24.23;17.08;;;22.40;99.90;;;;;;4916904;29;20016;-90
2021/09/21 11:29:39;;;;;;;21.58;17.60;;;22.50;99.90;;;;;;4915234;29;20032;-89
2021/09/21 11:32:21;;;;;;;22.20;17.25;;;22.50;99.90;;;;;;4915560;29;20020;-89
2021/09/21 11:35:15;;;;;;;20.02;16.10;;;22.60;99.90;;;;;;4917309;29;20087;-89
2021/09/21 11:37:43;;;;;;;20.23;15.88;;;22.80;99.90;;;;;;4936281;29;20075;-90
2021/09/21 11:40:09;;;;;;;19.02;16.13;;;23.00;99.90;;;;;;4911697;29;20108;-89
2021/09/21 11:42:36;;;;;;;19.17;14.88;;;23.10;99.90;;;;;;4916479;29;20390;-93
2021/09/21 11:45:07;;;;;;;17.17;13.18;;;23.30;99.90;;;;;;4914297;29;20055;-92
2021/09/21 11:47:39;;;;;;;18.02;14.73;;;23.30;99.90;;;;;;4915458;29;20029;-94
2021/09/21 11:50:13;;;;;;;17.27;13.27;;;23.40;99.90;;;;;;4926086;29;20020;-72
2021/09/21 11:52:40;;;;;;;;;;;23.30;99.90;;;;;;4910419;29;20032;-72
2021/09/21 11:55:14;;;;;;;15.55;12.82;;;23.40;99.90;;;;;;4904131;29;19911;-72
2021/09/21 11:57:44;;;;;;;15.20;12.30;;;23.60;99.90;;;;;;4908188;29;20024;-72
2021/09/21 12:00:32;;;;;;;17.35;13.05;;;23.80;99.90;;;;;;4902287;29;20016;-72
2021/09/21 12:03:00;;;;;;;18.38;13.57;;;24.00;99.90;;;;;;4911456;29;20051;-72
2021/09/21 12:05:27;;;;;;;15.73;13.40;;;24.10;99.90;;;;;;4902574;29;20039;-72
2021/09/21 12:07:53;;;;;;;18.25;13.10;;;24.30;99.90;;;;;;4907700;29;20058;-72
2021/09/21 12:10:23;;;;;;;17.95;13.35;;;24.30;99.50;;;;;;4900404;29;20024;-72
2021/09/21 12:13:18;;;;;;;14.90;10.98;;;24.30;98.70;;;;;;4912971;29;20099;-72
2021/09/21 12:15:50;;;;;;;14.40;11.32;;;24.30;97.50;;;;;;4907832;29;20068;-72
2021/09/21 12:18:15;;;;;;;15.18;10.48;;;24.20;97.30;;;;;;4913315;29;20157;-72
2021/09/21 12:20:49;;;;;;;11.88;9.18;;;23.90;97.50;;;;;;4913428;29;20185;-72
2021/09/21 12:23:15;;;;;;;11.30;9.90;;;23.80;97.50;;;;;;4910312;29;20087;-72
2021/09/21 12:25:41;;;;;;;12.95;9.35;;;24.00;97.20;;;;;;4907010;29;20546;-72
2021/09/21 12:28:09;;;;;;;11.32;8.95;;;24.10;96.70;;;;;;4904543;29;20031;-72
2021/09/21 12:30:39;;;;;;;10.77;8.30;;;24.40;97.30;;;;;;4900598;29;20021;-72
2021/09/21 12:33:07;;;;;;;8.45;6.90;;;24.60;95.80;;;;;;4907302;29;20035;-72
2021/09/21 12:35:39;;;;;;;11.05;7.25;;;24.70;96.20;;;;;;4901384;29;20071;-72
2021/09/21 12:38:11;;;;;;;9.55;6.15;;;24.80;95.90;;;;;;4902314;29;20032;-72
2021/09/21 12:40:50;;;;;;;7.20;5.85;;;24.80;94.40;;;;;;4902353;29;20040;-72
2021/09/21 12:43:24;;;;;;;6.57;4.85;;;24.80;92.90;;;;;;4902908;29;20043;-72
2021/09/21 12:45:54;;;;;;;4.88;4.38;;;24.80;93.00;;;;;;4901545;29;20476;-72
2021/09/21 12:48:25;;;;;;;4.88;4.38;;;24.90;93.30;;;;;;4902352;29;20024;-72
2021/09/21 12:50:59;;;;;;;6.18;4.72;;;25.00;93.50;;;;;;4902977;29;20028;-72